RKSI/ICN METAR and TAF weather

Enter ICAO airport designator
Station Type Date Time Source
RKSI METAR 2022/06/28 15:00 UTC NOAA

RKSI 281500Z 18025G37KT 4500 -RA BR BKN008 BKN020 OVC080 25/23 Q1001 NOSIG


Station Type Date Time Source
RKSI Decoded METAR 2022/06/28 15:00 UTC NOAA

Incheon International Airport, Korea, South (RKSI) 37-28N 126-27E
Jun 28, 2022 - 11:00 AM EDT / 2022.06.28 1500 UTC
Wind: from the S (180 degrees) at 29 MPH (25 KT) gusting to 43 MPH (37 KT):0
Visibility: 2 mile(s):0
Sky conditions: overcast
Weather: light rain; mist
Temperature: 77 F (25 C)
Dew Point: 73 F (23 C)
Relative Humidity: 88%
Pressure (altimeter): 29.56 in. Hg (1001 hPa)
ob: RKSI 281500Z 18025G37KT 4500 -RA BR BKN008 BKN020 OVC080 25/23 Q1001 NOSIG
cycle: 15

Station Type Date Time Source
RKSI TAF 2022/06/28 12:06 UTC NOAA

TAF RKSI 281100Z 2812/2918 19020G30KT 6000 -RA FEW010 BKN020 OVC080 TN23/2820Z TX26/2905Z
TEMPO 2816/2818 23028G40KT 2800 TSRA SCT008CB BKN020 OVC080
BECMG 2901/2902 23015G25KT 3500
BECMG 2904/2905 23010KT 2500
BECMG 2911/2912 BR
BECMG 2914/2915 20010KT 3500 -RA

Example: see airport list